sensor_id;sensor_type;location;lat;lon;timestamp;pressure;altitude;pressure_sealevel;temperature;humidity
77325;BME280;66387;53.440;10.390;2023-04-15T00:00:14;100270.88;;;6.95;92.74
77325;BME280;66387;53.440;10.390;2023-04-15T00:02:40;100278.59;;;6.97;93.32
77325;BME280;66387;53.440;10.390;2023-04-15T00:05:06;100269.97;;;7.04;92.73
77325;BME280;66387;53.440;10.390;2023-04-15T00:07:31;100270.84;;;6.97;92.61
77325;BME280;66387;53.440;10.390;2023-04-15T00:09:57;100260.53;;;6.97;92.75
77325;BME280;66387;53.440;10.390;2023-04-15T00:12:23;100257.94;;;7.00;93.06
77325;BME280;66387;53.440;10.390;2023-04-15T00:14:48;100252.78;;;7.01;92.76
77325;BME280;66387;53.440;10.390;2023-04-15T00:17:15;100247.63;;;7.03;92.79
77325;BME280;66387;53.440;10.390;2023-04-15T00:19:41;100255.41;;;6.95;92.85
77325;BME280;66387;53.440;10.390;2023-04-15T00:22:06;100253.63;;;7.00;92.98
77325;BME280;66387;53.440;10.390;2023-04-15T00:24:32;100257.97;;;6.95;93.22
77325;BME280;66387;53.440;10.390;2023-04-15T00:26:58;100258.88;;;6.86;93.65
77325;BME280;66387;53.440;10.390;2023-04-15T00:29:24;100266.56;;;6.94;93.35
77325;BME280;66387;53.440;10.390;2023-04-15T00:31:49;100260.53;;;6.98;93.50
77325;BME280;66387;53.440;10.390;2023-04-15T00:34:14;100257.09;;;6.99;93.23
77325;BME280;66387;53.440;10.390;2023-04-15T00:36:40;100258.81;;;6.97;93.94
77325;BME280;66387;53.440;10.390;2023-04-15T00:39:06;100252.78;;;6.97;93.12
77325;BME280;66387;53.440;10.390;2023-04-15T00:41:31;100258.81;;;6.97;93.83
77325;BME280;66387;53.440;10.390;2023-04-15T00:43:58;100259.69;;;6.99;93.80
77325;BME280;66387;53.440;10.390;2023-04-15T00:46:25;100260.56;;;6.89;93.99
77325;BME280;66387;53.440;10.390;2023-04-15T00:48:51;100258.88;;;6.82;94.61
77325;BME280;66387;53.440;10.390;2023-04-15T00:51:17;100250.22;;;6.94;94.34
77325;BME280;66387;53.440;10.390;2023-04-15T00:53:42;100248.47;;;7.02;94.37
77325;BME280;66387;53.440;10.390;2023-04-15T00:56:08;100253.63;;;7.03;94.05
77325;BME280;66387;53.440;10.390;2023-04-15T00:58:33;100240.75;;;7.02;93.51
77325;BME280;66387;53.440;10.390;2023-04-15T01:00:58;100245.09;;;6.92;93.89
77325;BME280;66387;53.440;10.390;2023-04-15T01:03:24;100239.06;;;6.93;94.61
77325;BME280;66387;53.440;10.390;2023-04-15T01:05:49;100231.28;;;6.96;94.10
77325;BME280;66387;53.440;10.390;2023-04-15T01:08:15;100228.72;;;6.95;94.04
77325;BME280;66387;53.440;10.390;2023-04-15T01:10:40;100231.31;;;6.88;94.43
77325;BME280;66387;53.440;10.390;2023-04-15T01:13:06;100228.75;;;6.87;94.72
77325;BME280;66387;53.440;10.390;2023-04-15T01:15:31;100226.13;;;6.96;94.42
77325;BME280;66387;53.440;10.390;2023-04-15T01:17:58;100221.88;;;6.89;94.77
77325;BME280;66387;53.440;10.390;2023-04-15T01:20:23;100221.88;;;6.92;95.10
77325;BME280;66387;53.440;10.390;2023-04-15T01:22:49;100225.31;;;6.89;94.63
77325;BME280;66387;53.440;10.390;2023-04-15T01:25:17;100219.28;;;6.95;94.62
77325;BME280;66387;53.440;10.390;2023-04-15T01:27:44;100217.56;;;6.94;94.34
77325;BME280;66387;53.440;10.390;2023-04-15T01:30:10;100214.94;;;6.97;94.57
77325;BME280;66387;53.440;10.390;2023-04-15T01:32:35;100222.72;;;6.94;95.04
77325;BME280;66387;53.440;10.390;2023-04-15T01:35:01;100226.13;;;6.96;95.12
77325;BME280;66387;53.440;10.390;2023-04-15T01:37:27;100225.28;;;6.99;95.11
77325;BME280;66387;53.440;10.390;2023-04-15T01:39:52;100224.41;;;6.97;95.04
77325;BME280;66387;53.440;10.390;2023-04-15T01:42:18;100222.66;;;7.00;94.87
77325;BME280;66387;53.440;10.390;2023-04-15T01:44:43;100214.97;;;6.94;94.80
77325;BME280;66387;53.440;10.390;2023-04-15T01:47:08;100217.53;;;6.97;95.09
77325;BME280;66387;53.440;10.390;2023-04-15T01:49:34;100216.66;;;7.03;95.28
77325;BME280;66387;53.440;10.390;2023-04-15T01:51:59;100214.91;;;7.05;94.98
77325;BME280;66387;53.440;10.390;2023-04-15T01:54:25;100209.78;;;6.99;95.29
77325;BME280;66387;53.440;10.390;2023-04-15T01:56:51;100205.47;;;7.01;95.21
77325;BME280;66387;53.440;10.390;2023-04-15T01:59:16;100202.84;;;7.10;95.19
77325;BME280;66387;53.440;10.390;2023-04-15T02:01:41;100200.31;;;7.02;95.34
77325;BME280;66387;53.440;10.390;2023-04-15T02:04:07;100194.28;;;7.00;95.53
77325;BME280;66387;53.440;10.390;2023-04-15T02:06:40;100193.41;;;7.04;95.25
77325;BME280;66387;53.440;10.390;2023-04-15T02:09:05;100188.25;;;7.00;95.61
77325;BME280;66387;53.440;10.390;2023-04-15T02:11:30;100183.16;;;6.94;96.35
77325;BME280;66387;53.440;10.390;2023-04-15T02:13:56;100185.72;;;6.95;96.08
77325;BME280;66387;53.440;10.390;2023-04-15T02:16:21;100194.31;;;6.97;96.12
77325;BME280;66387;53.440;10.390;2023-04-15T02:18:46;100196.88;;;7.00;95.85
77325;BME280;66387;53.440;10.390;2023-04-15T02:21:12;100196.84;;;7.03;96.25
77325;BME280;66387;53.440;10.390;2023-04-15T02:23:37;100184.78;;;7.08;96.10
77325;BME280;66387;53.440;10.390;2023-04-15T02:26:03;100188.22;;;7.07;95.86
77325;BME280;66387;53.440;10.390;2023-04-15T02:28:28;100190.81;;;7.04;95.77
77325;BME280;66387;53.440;10.390;2023-04-15T02:30:53;100186.53;;;7.06;96.12
77325;BME280;66387;53.440;10.390;2023-04-15T02:33:21;100186.50;;;7.09;96.41
77325;BME280;66387;53.440;10.390;2023-04-15T02:35:47;100192.53;;;7.08;95.96
77325;BME280;66387;53.440;10.390;2023-04-15T02:38:12;100188.22;;;7.07;96.62
77325;BME280;66387;53.440;10.390;2023-04-15T02:40:38;100197.69;;;7.08;96.10
77325;BME280;66387;53.440;10.390;2023-04-15T02:43:04;100204.56;;;7.09;96.37
77325;BME280;66387;53.440;10.390;2023-04-15T02:45:31;100200.22;;;7.17;96.53
77325;BME280;66387;53.440;10.390;2023-04-15T02:47:56;100201.06;;;7.21;96.73
77325;BME280;66387;53.440;10.390;2023-04-15T02:50:22;100192.53;;;7.10;96.64
77325;BME280;66387;53.440;10.390;2023-04-15T02:52:48;100194.19;;;7.18;96.55
77325;BME280;66387;53.440;10.390;2023-04-15T02:55:13;100201.91;;;7.18;96.53
77325;BME280;66387;53.440;10.390;2023-04-15T02:57:38;100201.13;;;7.13;96.45
77325;BME280;66387;53.440;10.390;2023-04-15T03:00:05;100203.72;;;7.10;96.91
77325;BME280;66387;53.440;10.390;2023-04-15T03:02:35;100200.28;;;7.10;97.09
77325;BME280;66387;53.440;10.390;2023-04-15T03:05:01;100187.34;;;7.07;97.04
77325;BME280;66387;53.440;10.390;2023-04-15T03:07:26;100197.69;;;7.07;97.19
77325;BME280;66387;53.440;10.390;2023-04-15T03:09:51;100187.38;;;7.08;97.53
77325;BME280;66387;53.440;10.390;2023-04-15T03:12:17;100178.75;;;7.08;97.62
77325;BME280;66387;53.440;10.390;2023-04-15T03:14:42;100177.03;;;7.07;97.38
77325;BME280;66387;53.440;10.390;2023-04-15T03:17:07;100178.78;;;7.05;97.45
77325;BME280;66387;53.440;10.390;2023-04-15T03:19:32;100174.50;;;7.02;97.92
77325;BME280;66387;53.440;10.390;2023-04-15T03:21:58;100182.19;;;7.07;97.82
77325;BME280;66387;53.440;10.390;2023-04-15T03:24:23;100183.03;;;7.13;97.79
77325;BME280;66387;53.440;10.390;2023-04-15T03:26:49;100177.09;;;7.01;97.88
77325;BME280;66387;53.440;10.390;2023-04-15T03:29:14;100181.31;;;7.12;97.55
77325;BME280;66387;53.440;10.390;2023-04-15T03:31:40;100190.75;;;7.15;97.66
77325;BME280;66387;53.440;10.390;2023-04-15T03:34:05;100186.50;;;7.08;97.75
77325;BME280;66387;53.440;10.390;2023-04-15T03:36:31;100181.34;;;7.09;98.22
77325;BME280;66387;53.440;10.390;2023-04-15T03:38:59;100183.91;;;7.11;97.85
77325;BME280;66387;53.440;10.390;2023-04-15T03:41:26;100182.19;;;7.13;97.77
77325;BME280;66387;53.440;10.390;2023-04-15T03:43:52;100180.47;;;7.12;98.32
77325;BME280;66387;53.440;10.390;2023-04-15T03:46:17;100184.75;;;7.11;98.05
77325;BME280;66387;53.440;10.390;2023-04-15T03:48:43;100189.06;;;7.11;97.95
77325;BME280;66387;53.440;10.390;2023-04-15T03:51:08;100177.84;;;7.19;97.23
77325;BME280;66387;53.440;10.390;2023-04-15T03:53:33;100184.75;;;7.13;97.60
77325;BME280;66387;53.440;10.390;2023-04-15T03:55:59;100185.63;;;7.12;97.69
77325;BME280;66387;53.440;10.390;2023-04-15T03:58:24;100189.94;;;7.13;98.10
77325;BME280;66387;53.440;10.390;2023-04-15T04:00:49;100170.97;;;7.15;98.21
77325;BME280;66387;53.440;10.390;2023-04-15T04:03:15;100181.31;;;7.14;97.96
77325;BME280;66387;53.440;10.390;2023-04-15T04:05:40;100176.16;;;7.11;97.92
77325;BME280;66387;53.440;10.390;2023-04-15T04:08:06;100169.28;;;7.11;98.08
77325;BME280;66387;53.440;10.390;2023-04-15T04:10:31;100177.91;;;7.10;98.41
77325;BME280;66387;53.440;10.390;2023-04-15T04:12:56;100167.56;;;7.09;98.40
77325;BME280;66387;53.440;10.390;2023-04-15T04:15:22;100177.91;;;7.10;98.72
77325;BME280;66387;53.440;10.390;2023-04-15T04:17:47;100184.75;;;7.13;98.56
77325;BME280;66387;53.440;10.390;2023-04-15T04:20:12;100179.59;;;7.17;98.68
77325;BME280;66387;53.440;10.390;2023-04-15T04:22:38;100183.84;;;7.20;98.48
77325;BME280;66387;53.440;10.390;2023-04-15T04:25:04;100187.31;;;7.20;98.55
77325;BME280;66387;53.440;10.390;2023-04-15T04:27:29;100187.31;;;7.17;98.62
77325;BME280;66387;53.440;10.390;2023-04-15T04:29:55;100185.59;;;7.16;98.51
77325;BME280;66387;53.440;10.390;2023-04-15T04:32:20;100189.88;;;7.20;98.51
77325;BME280;66387;53.440;10.390;2023-04-15T04:34:45;100179.53;;;7.23;98.24
77325;BME280;66387;53.440;10.390;2023-04-15T04:37:12;100181.22;;;7.32;98.31
77325;BME280;66387;53.440;10.390;2023-04-15T04:39:37;100177.84;;;7.19;98.24
77325;BME280;66387;53.440;10.390;2023-04-15T04:42:02;100188.13;;;7.22;98.38
77325;BME280;66387;53.440;10.390;2023-04-15T04:44:28;100196.75;;;7.20;98.83
77325;BME280;66387;53.440;10.390;2023-04-15T04:46:53;100200.22;;;7.20;98.68
77325;BME280;66387;53.440;10.390;2023-04-15T04:49:18;100198.53;;;7.13;99.12
77325;BME280;66387;53.440;10.390;2023-04-15T04:51:43;100196.72;;;7.21;98.85
77325;BME280;66387;53.440;10.390;2023-04-15T04:54:09;100199.41;;;7.14;99.21
77325;BME280;66387;53.440;10.390;2023-04-15T04:56:34;100194.19;;;7.15;99.22
77325;BME280;66387;53.440;10.390;2023-04-15T04:58:59;100197.63;;;7.19;99.33
77325;BME280;66387;53.440;10.390;2023-04-15T05:01:25;100197.59;;;7.22;98.85
77325;BME280;66387;53.440;10.390;2023-04-15T05:03:53;100207.88;;;7.31;98.86
77325;BME280;66387;53.440;10.390;2023-04-15T05:06:18;100203.63;;;7.24;98.66
77325;BME280;66387;53.440;10.390;2023-04-15T05:08:43;100206.19;;;7.27;99.23
77325;BME280;66387;53.440;10.390;2023-04-15T05:11:10;100198.44;;;7.27;99.13
77325;BME280;66387;53.440;10.390;2023-04-15T05:13:36;100197.56;;;7.26;98.79
77325;BME280;66387;53.440;10.390;2023-04-15T05:16:06;100193.28;;;7.25;98.93
77325;BME280;66387;53.440;10.390;2023-04-15T05:18:31;100188.16;;;7.19;99.10
77325;BME280;66387;53.440;10.390;2023-04-15T05:20:57;100185.56;;;7.22;99.05
77325;BME280;66387;53.440;10.390;2023-04-15T05:23:22;100198.44;;;7.25;99.06
77325;BME280;66387;53.440;10.390;2023-04-15T05:25:48;100196.75;;;7.23;99.34
77325;BME280;66387;53.440;10.390;2023-04-15T05:28:13;100196.72;;;7.21;99.47
77325;BME280;66387;53.440;10.390;2023-04-15T05:30:38;100204.47;;;7.26;99.19
77325;BME280;66387;53.440;10.390;2023-04-15T05:33:04;100209.63;;;7.26;99.36
77325;BME280;66387;53.440;10.390;2023-04-15T05:35:29;100204.44;;;7.32;99.04
77325;BME280;66387;53.440;10.390;2023-04-15T05:37:55;100199.34;;;7.20;99.59
77325;BME280;66387;53.440;10.390;2023-04-15T05:40:21;100199.31;;;7.27;99.50
77325;BME280;66387;53.440;10.390;2023-04-15T05:42:46;100201.03;;;7.22;99.74
77325;BME280;66387;53.440;10.390;2023-04-15T05:45:11;100204.50;;;7.24;99.71
77325;BME280;66387;53.440;10.390;2023-04-15T05:47:37;100206.16;;;7.31;99.57
77325;BME280;66387;53.440;10.390;2023-04-15T05:50:03;100207.00;;;7.33;99.53
77325;BME280;66387;53.440;10.390;2023-04-15T05:52:29;100212.13;;;7.36;99.44
77325;BME280;66387;53.440;10.390;2023-04-15T05:54:55;100212.06;;;7.49;99.45
77325;BME280;66387;53.440;10.390;2023-04-15T05:57:20;100214.59;;;7.56;99.30
77325;BME280;66387;53.440;10.390;2023-04-15T05:59:45;100207.72;;;7.51;99.42
77325;BME280;66387;53.440;10.390;2023-04-15T06:02:11;100220.63;;;7.55;98.88
77325;BME280;66387;53.440;10.390;2023-04-15T06:04:36;100224.06;;;7.56;98.91
77325;BME280;66387;53.440;10.390;2023-04-15T06:07:01;100225.81;;;7.51;99.26
77325;BME280;66387;53.440;10.390;2023-04-15T06:09:27;100230.16;;;7.44;99.10
77325;BME280;66387;53.440;10.390;2023-04-15T06:11:53;100233.63;;;7.46;99.48
77325;BME280;66387;53.440;10.390;2023-04-15T06:14:18;100228.38;;;7.51;98.90
77325;BME280;66387;53.440;10.390;2023-04-15T06:16:44;100225.84;;;7.48;99.09
77325;BME280;66387;53.440;10.390;2023-04-15T06:19:09;100232.75;;;7.44;98.92
77325;BME280;66387;53.440;10.390;2023-04-15T06:21:34;100236.25;;;7.35;98.98
77325;BME280;66387;53.440;10.390;2023-04-15T06:24:00;100241.41;;;7.32;99.44
77325;BME280;66387;53.440;10.390;2023-04-15T06:26:26;100259.47;;;7.37;99.25
77325;BME280;66387;53.440;10.390;2023-04-15T06:28:52;100254.31;;;7.38;99.01
77325;BME280;66387;53.440;10.390;2023-04-15T06:31:17;100256.00;;;7.39;99.27
77325;BME280;66387;53.440;10.390;2023-04-15T06:33:42;100248.22;;;7.47;98.78
77325;BME280;66387;53.440;10.390;2023-04-15T06:36:08;100243.94;;;7.46;99.04
77325;BME280;66387;53.440;10.390;2023-04-15T06:38:33;100243.91;;;7.49;99.13
77325;BME280;66387;53.440;10.390;2023-04-15T06:40:58;100249.97;;;7.47;98.26
77325;BME280;66387;53.440;10.390;2023-04-15T06:43:23;100253.31;;;7.58;98.44
77325;BME280;66387;53.440;10.390;2023-04-15T06:45:49;100255.94;;;7.53;98.24
77325;BME280;66387;53.440;10.390;2023-04-15T06:48:15;100256.00;;;7.46;98.22
77325;BME280;66387;53.440;10.390;2023-04-15T06:50:40;100259.38;;;7.51;98.19
77325;BME280;66387;53.440;10.390;2023-04-15T06:53:05;100259.38;;;7.52;98.65
77325;BME280;66387;53.440;10.390;2023-04-15T06:55:31;100269.72;;;7.51;98.96
77325;BME280;66387;53.440;10.390;2023-04-15T06:57:57;100270.66;;;7.42;98.46
77325;BME280;66387;53.440;10.390;2023-04-15T07:00:23;100268.88;;;7.47;98.11
77325;BME280;66387;53.440;10.390;2023-04-15T07:02:48;100268.03;;;7.44;98.56
77325;BME280;66387;53.440;10.390;2023-04-15T07:05:13;100263.72;;;7.50;98.15
77325;BME280;66387;53.440;10.390;2023-04-15T07:07:39;100274.03;;;7.47;98.80
77325;BME280;66387;53.440;10.390;2023-04-15T07:10:05;100270.59;;;7.50;99.04
77325;BME280;66387;53.440;10.390;2023-04-15T07:12:30;100278.38;;;7.47;98.73
77325;BME280;66387;53.440;10.390;2023-04-15T07:14:55;100279.22;;;7.49;99.19
77325;BME280;66387;53.440;10.390;2023-04-15T07:17:20;100271.41;;;7.61;98.21
77325;BME280;66387;53.440;10.390;2023-04-15T07:19:46;100268.81;;;7.61;98.51
77325;BME280;66387;53.440;10.390;2023-04-15T07:22:12;100280.84;;;7.65;98.30
77325;BME280;66387;53.440;10.390;2023-04-15T07:24:37;100279.97;;;7.64;98.00
77325;BME280;66387;53.440;10.390;2023-04-15T07:27:02;100281.66;;;7.71;98.62
77325;BME280;66387;53.440;10.390;2023-04-15T07:29:30;100282.44;;;7.81;97.96
77325;BME280;66387;53.440;10.390;2023-04-15T07:31:56;100284.16;;;7.82;98.55
77325;BME280;66387;53.440;10.390;2023-04-15T07:34:21;100293.56;;;7.87;97.98
77325;BME280;66387;53.440;10.390;2023-04-15T07:36:46;100288.44;;;7.86;98.60
77325;BME280;66387;53.440;10.390;2023-04-15T07:39:18;100298.81;;;7.83;98.80
77325;BME280;66387;53.440;10.390;2023-04-15T07:41:43;100297.91;;;7.84;97.93
77325;BME280;66387;53.440;10.390;2023-04-15T07:44:09;100293.69;;;7.74;98.50
77325;BME280;66387;53.440;10.390;2023-04-15T07:46:34;100293.66;;;7.77;98.38
77325;BME280;66387;53.440;10.390;2023-04-15T07:49:01;100295.28;;;7.87;98.29
77325;BME280;66387;53.440;10.390;2023-04-15T07:51:26;100297.88;;;7.93;98.68
77325;BME280;66387;53.440;10.390;2023-04-15T07:53:53;100302.97;;;7.99;97.51
77325;BME280;66387;53.440;10.390;2023-04-15T07:56:18;100298.66;;;8.00;96.85
77325;BME280;66387;53.440;10.390;2023-04-15T07:58:44;100297.88;;;7.93;96.82
77325;BME280;66387;53.440;10.390;2023-04-15T08:01:10;100299.56;;;7.91;96.86
77325;BME280;66387;53.440;10.390;2023-04-15T08:03:35;100309.88;;;8.00;96.84
77325;BME280;66387;53.440;10.390;2023-04-15T08:06:01;100313.25;;;8.05;96.90
77325;BME280;66387;53.440;10.390;2023-04-15T08:08:26;100309.81;;;8.06;97.18
77325;BME280;66387;53.440;10.390;2023-04-15T08:10:52;100311.47;;;8.15;96.87
77325;BME280;66387;53.440;10.390;2023-04-15T08:13:17;100320.06;;;8.18;96.74
77325;BME280;66387;53.440;10.390;2023-04-15T08:15:42;100318.28;;;8.25;97.21
77325;BME280;66387;53.440;10.390;2023-04-15T08:18:08;100314.81;;;8.32;96.15
77325;BME280;66387;53.440;10.390;2023-04-15T08:20:33;100327.69;;;8.35;96.26
77325;BME280;66387;53.440;10.390;2023-04-15T08:22:58;100326.84;;;8.34;96.07
77325;BME280;66387;53.440;10.390;2023-04-15T08:25:24;100325.94;;;8.38;96.56
77325;BME280;66387;53.440;10.390;2023-04-15T08:27:49;100322.47;;;8.44;96.17
77325;BME280;66387;53.440;10.390;2023-04-15T08:30:15;100328.41;;;8.54;95.81
77325;BME280;66387;53.440;10.390;2023-04-15T08:32:46;100332.75;;;8.52;95.58
77325;BME280;66387;53.440;10.390;2023-04-15T08:35:12;100337.84;;;8.56;95.92
77325;BME280;66387;53.440;10.390;2023-04-15T08:37:37;100333.50;;;8.63;95.42
77325;BME280;66387;53.440;10.390;2023-04-15T08:40:03;100344.72;;;8.60;95.43
77325;BME280;66387;53.440;10.390;2023-04-15T08:42:36;100344.78;;;8.56;95.92
77325;BME280;66387;53.440;10.390;2023-04-15T08:45:08;100341.22;;;8.66;94.87
77325;BME280;66387;53.440;10.390;2023-04-15T08:47:35;100331.66;;;8.74;95.52
77325;BME280;66387;53.440;10.390;2023-04-15T08:50:02;100327.28;;;8.80;94.90
77325;BME280;66387;53.440;10.390;2023-04-15T08:52:30;100329.00;;;8.78;93.86
77325;BME280;66387;53.440;10.390;2023-04-15T08:54:56;100338.44;;;8.84;93.70
77325;BME280;66387;53.440;10.390;2023-04-15T08:57:25;100334.06;;;8.89;93.44
77325;BME280;66387;53.440;10.390;2023-04-15T08:59:52;100337.47;;;8.94;94.38
77325;BME280;66387;53.440;10.390;2023-04-15T09:02:18;100338.41;;;8.87;93.49
77325;BME280;66387;53.440;10.390;2023-04-15T09:04:43;100335.00;;;8.85;93.40
77325;BME280;66387;53.440;10.390;2023-04-15T09:07:08;100347.13;;;8.80;93.44
77325;BME280;66387;53.440;10.390;2023-04-15T09:09:34;100341.84;;;8.89;93.69
77325;BME280;66387;53.440;10.390;2023-04-15T09:12:01;100338.28;;;8.96;93.95
77325;BME280;66387;53.440;10.390;2023-04-15T09:14:28;100342.31;;;9.23;93.16
77325;BME280;66387;53.440;10.390;2023-04-15T09:17:00;100349.91;;;9.36;91.79
77325;BME280;66387;53.440;10.390;2023-04-15T09:19:26;100338.50;;;9.51;92.10
77325;BME280;66387;53.440;10.390;2023-04-15T09:21:53;100350.38;;;9.66;91.40
77325;BME280;66387;53.440;10.390;2023-04-15T09:24:19;100350.34;;;9.70;92.32
77325;BME280;66387;53.440;10.390;2023-04-15T09:26:44;100363.19;;;9.78;90.80
77325;BME280;66387;53.440;10.390;2023-04-15T09:29:10;100352.03;;;9.73;91.02
77325;BME280;66387;53.440;10.390;2023-04-15T09:31:40;100358.81;;;9.80;91.17
77325;BME280;66387;53.440;10.390;2023-04-15T09:34:06;100359.53;;;9.91;90.34
77325;BME280;66387;53.440;10.390;2023-04-15T09:39:14;100354.19;;;10.03;90.95
77325;BME280;66387;53.440;10.390;2023-04-15T09:41:39;100358.13;;;10.28;89.36
77325;BME280;66387;53.440;10.390;2023-04-15T09:44:05;100355.69;;;10.19;88.57
77325;BME280;66387;53.440;10.390;2023-04-15T09:46:41;100365.72;;;10.41;88.75
77325;BME280;66387;53.440;10.390;2023-04-15T09:49:08;100361.34;;;10.43;88.18
77325;BME280;66387;53.440;10.390;2023-04-15T09:51:34;100352.78;;;10.39;86.67
77325;BME280;66387;53.440;10.390;2023-04-15T09:54:00;100369.25;;;10.37;87.76
77325;BME280;66387;53.440;10.390;2023-04-15T09:56:33;100370.63;;;10.59;88.54
77325;BME280;66387;53.440;10.390;2023-04-15T09:59:00;100368.94;;;11.04;88.38
77325;BME280;66387;53.440;10.390;2023-04-15T10:01:25;100374.75;;;11.16;85.83
77325;BME280;66387;53.440;10.390;2023-04-15T10:03:52;100374.06;;;11.07;85.10
77325;BME280;66387;53.440;10.390;2023-04-15T10:06:18;100378.69;;;10.91;84.96
77325;BME280;66387;53.440;10.390;2023-04-15T10:08:44;100382.81;;;11.03;84.99
77325;BME280;66387;53.440;10.390;2023-04-15T10:11:10;100384.19;;;11.22;84.27
77325;BME280;66387;53.440;10.390;2023-04-15T10:13:37;100386.13;;;11.11;84.06
77325;BME280;66387;53.440;10.390;2023-04-15T10:16:06;100391.28;;;11.12;84.30
77325;BME280;66387;53.440;10.390;2023-04-15T10:18:34;100395.53;;;11.16;84.04
77325;BME280;66387;53.440;10.390;2023-04-15T10:21:02;100393.72;;;11.21;85.74
77325;BME280;66387;53.440;10.390;2023-04-15T10:23:29;100398.91;;;11.21;84.68
77325;BME280;66387;53.440;10.390;2023-04-15T10:25:54;100399.16;;;11.08;83.49
77325;BME280;66387;53.440;10.390;2023-04-15T10:28:20;100398.06;;;11.19;83.92
77325;BME280;66387;53.440;10.390;2023-04-15T10:30:47;100397.31;;;11.14;84.12
77325;BME280;66387;53.440;10.390;2023-04-15T10:33:14;100406.78;;;11.15;84.00
77325;BME280;66387;53.440;10.390;2023-04-15T10:35:41;100404.91;;;11.25;84.07
77325;BME280;66387;53.440;10.390;2023-04-15T10:38:33;100403.78;;;11.37;82.43
77325;BME280;66387;53.440;10.390;2023-04-15T10:41:24;100400.88;;;11.52;83.15
77325;BME280;66387;53.440;10.390;2023-04-15T10:46:44;100390.53;;;12.28;80.20
77325;BME280;66387;53.440;10.390;2023-04-15T10:49:23;100397.63;;;12.59;78.46
77325;BME280;66387;53.440;10.390;2023-04-15T10:51:56;100391.56;;;12.92;77.34
77325;BME280;66387;53.440;10.390;2023-04-15T10:56:51;100403.31;;;12.74;79.11
77325;BME280;66387;53.440;10.390;2023-04-15T10:59:16;100402.50;;;12.37;79.83
77325;BME280;66387;53.440;10.390;2023-04-15T11:01:55;100419.19;;;12.28;80.38
77325;BME280;66387;53.440;10.390;2023-04-15T11:12:43;100411.88;;;12.07;80.22
77325;BME280;66387;53.440;10.390;2023-04-15T11:15:37;100408.41;;;12.44;79.42
77325;BME280;66387;53.440;10.390;2023-04-15T11:20:45;100411.97;;;13.41;76.48
77325;BME280;66387;53.440;10.390;2023-04-15T11:23:11;100415.03;;;13.55;76.37
77325;BME280;66387;53.440;10.390;2023-04-15T11:25:36;100413.09;;;13.33;76.01
77325;BME280;66387;53.440;10.390;2023-04-15T11:28:02;100414.44;;;13.46;75.39
77325;BME280;66387;53.440;10.390;2023-04-15T11:30:30;100422.31;;;13.44;75.82
77325;BME280;66387;53.440;10.390;2023-04-15T11:33:01;100424.69;;;13.21;75.91
77325;BME280;66387;53.440;10.390;2023-04-15T11:35:27;100428.47;;;13.08;76.81
77325;BME280;66387;53.440;10.390;2023-04-15T11:37:53;100424.13;;;13.08;77.59
77325;BME280;66387;53.440;10.390;2023-04-15T11:40:28;100426.50;;;12.85;76.91
77325;BME280;66387;53.440;10.390;2023-04-15T11:43:11;100427.16;;;12.58;76.94
77325;BME280;66387;53.440;10.390;2023-04-15T11:45:47;100438.31;;;12.27;78.23
77325;BME280;66387;53.440;10.390;2023-04-15T11:48:13;100433.03;;;12.31;78.46
77325;BME280;66387;53.440;10.390;2023-04-15T11:50:39;100437.66;;;12.53;78.69
77325;BME280;66387;53.440;10.390;2023-04-15T11:53:06;100442.44;;;12.71;78.92
77325;BME280;66387;53.440;10.390;2023-04-15T11:55:45;100437.28;;;12.70;78.00
77325;BME280;66387;53.440;10.390;2023-04-15T11:58:17;100440.03;;;12.64;78.27
77325;BME280;66387;53.440;10.390;2023-04-15T12:00:53;100447.00;;;12.63;77.57
77325;BME280;66387;53.440;10.390;2023-04-15T12:03:25;100446.06;;;12.66;77.80
77325;BME280;66387;53.440;10.390;2023-04-15T12:06:16;100452.22;;;12.97;76.86
77325;BME280;66387;53.440;10.390;2023-04-15T12:08:59;100454.53;;;13.09;76.51
77325;BME280;66387;53.440;10.390;2023-04-15T12:13:52;100453.06;;;13.93;73.36
77325;BME280;66387;53.440;10.390;2023-04-15T12:16:18;100448.16;;;13.83;73.96
77325;BME280;66387;53.440;10.390;2023-04-15T12:18:56;100462.66;;;13.31;74.50
77325;BME280;66387;53.440;10.390;2023-04-15T12:21:25;100463.81;;;13.19;75.28
77325;BME280;66387;53.440;10.390;2023-04-15T12:23:57;100461.72;;;13.00;75.31
77325;BME280;66387;53.440;10.390;2023-04-15T12:26:33;100471.66;;;12.84;75.79
77325;BME280;66387;53.440;10.390;2023-04-15T12:29:09;100471.81;;;12.78;76.37
77325;BME280;66387;53.440;10.390;2023-04-15T12:31:35;100470.31;;;12.68;75.99
77325;BME280;66387;53.440;10.390;2023-04-15T12:34:06;100474.47;;;12.75;76.14
77325;BME280;66387;53.440;10.390;2023-04-15T12:36:32;100473.66;;;12.73;75.65
77325;BME280;66387;53.440;10.390;2023-04-15T12:39:02;100475.56;;;12.66;76.44
77325;BME280;66387;53.440;10.390;2023-04-15T12:41:28;100473.75;;;12.70;76.05
77325;BME280;66387;53.440;10.390;2023-04-15T12:43:53;100476.75;;;13.24;75.50
77325;BME280;66387;53.440;10.390;2023-04-15T12:46:18;100478.56;;;13.53;72.90
77325;BME280;66387;53.440;10.390;2023-04-15T12:48:44;100486.09;;;13.33;73.23
77325;BME280;66387;53.440;10.390;2023-04-15T12:51:09;100485.44;;;13.24;74.72
77325;BME280;66387;53.440;10.390;2023-04-15T12:53:34;100488.22;;;13.17;74.91
77325;BME280;66387;53.440;10.390;2023-04-15T12:56:00;100491.28;;;12.97;74.09
77325;BME280;66387;53.440;10.390;2023-04-15T12:58:25;100492.22;;;12.95;74.43
77325;BME280;66387;53.440;10.390;2023-04-15T13:00:51;100500.28;;;12.86;73.86
77325;BME280;66387;53.440;10.390;2023-04-15T13:03:16;100501.13;;;12.86;74.91
77325;BME280;66387;53.440;10.390;2023-04-15T13:05:42;100506.97;;;12.96;74.46